Roaz — CQVY — position and weather

sailwx.info

Track history (hours):
 
Tides and Currents Weather Stations Pressure Air Temp Water Temp Dewpoint Dewpoint Depression Visibility Wind Speed Wind Dir Waves Ship Positions

Roaz

Last reported at 2017-Sep-22 02:00 UTC. Time now 2017-Sep-22 22:43 UTC.
Position N 38°30' W 008°56'.

Length 82 m; draft 5.7 m.

Type: Cargo ship. MMSI: 255929000.

Date/timePositionNaut miles runAvg speedWind from/ knotsBaromVisibWave heightAir tempDewpointWater temp
2017-Sep-22 02:00N 38°30' W 008°56'5 8.9
2017-Sep-22 01:30N 38°26' W 008°60'510.2
2017-Sep-22 01:00N 38°24' W 009°05'510.3
2017-Sep-22 00:30N 38°23' W 009°12'510.6
2017-Sep-22 00:00N 38°24' W 009°18'611.0
2017-Sep-21 23:30N 38°28' W 009°24'611.3
2017-Sep-21 23:00N 38°31' W 009°29'611.2
2017-Sep-21 22:30N 38°35' W 009°35'611.2
2017-Sep-21 22:00N 38°38' W 009°41'510.5
2017-Sep-21 21:30N 38°43' W 009°43'611.5
2017-Sep-21 21:00N 38°49' W 009°44'611.4
2017-Sep-21 20:30N 38°54' W 009°44'611.7
2017-Sep-21 20:00N 39°00' W 009°44'611.9
2017-Sep-21 19:30N 39°06' W 009°44'611.7
2017-Sep-21 19:00N 39°12' W 009°43'611.5
2017-Sep-21 18:30N 39°18' W 009°43'611.6
2017-Sep-21 18:00N 39°24' W 009°43'  
2017-Sep-19 02:54N 39°39' W 009°33'4 9.3
2017-Sep-19 02:25N 39°35' W 009°37'4 9.1
2017-Sep-19 02:00N 39°32' W 009°40'4 8.9
2017-Sep-19 01:30N 39°29' W 009°43'5 9.3
2017-Sep-19 01:00N 39°24' W 009°43'5 9.5
2017-Sep-19 00:30N 39°19' W 009°43'5 9.9
2017-Sep-19 00:00N 39°14' W 009°43'5 9.8
2017-Sep-18 23:30N 39°09' W 009°43'5 9.7
2017-Sep-18 23:00N 39°04' W 009°43'5 9.9
2017-Sep-18 22:30N 38°60' W 009°42'5 9.8
2017-Sep-18 22:00N 38°55' W 009°43'5 9.5
2017-Sep-18 21:30N 38°50' W 009°42'5 9.4
2017-Sep-18 21:00N 38°45' W 009°41'5 9.4
2017-Sep-18 20:30N 38°41' W 009°41'4 8.9
2017-Sep-18 20:00N 38°37' W 009°37'5 9.7
2017-Sep-18 19:30N 38°34' W 009°32'5 9.3
2017-Sep-18 19:00N 38°31' W 009°28'5 9.6
2017-Sep-18 18:30N 38°28' W 009°23'5 9.1
2017-Sep-18 18:00N 38°25' W 009°18'5 9.0
2017-Sep-18 17:30N 38°22' W 009°14'5 9.2
2017-Sep-18 17:00N 38°23' W 009°08'5 9.6
2017-Sep-18 16:30N 38°24' W 009°02'510.0
2017-Sep-18 16:00N 38°28' W 008°58'2 4.0
2017-Sep-18 15:25N 38°30' W 008°56'0 0.0
2017-Sep-18 14:58N 38°30' W 008°56'0 0.0
2017-Sep-18 14:28N 38°30' W 008°56'0 0.0
2017-Sep-18 13:58N 38°30' W 008°56'0 0.0
2017-Sep-18 13:28N 38°30' W 008°56'0 0.0
2017-Sep-18 10:46N 38°30' W 008°56'0 0.0
2017-Sep-18 10:28N 38°30' W 008°56'0 0.0
2017-Sep-18 09:58N 38°30' W 008°56'0 0.0
2017-Sep-18 09:25N 38°30' W 008°56'0 0.0
2017-Sep-18 08:55N 38°30' W 008°56'0 0.0
2017-Sep-18 08:28N 38°30' W 008°56'0 0.0
2017-Sep-18 06:10N 38°30' W 008°56'0 0.0
2017-Sep-18 05:46N 38°30' W 008°56'0 0.0
2017-Sep-18 05:04N 38°30' W 008°56'0 0.0
2017-Sep-18 04:58N 38°30' W 008°56'0 0.0
2017-Sep-18 04:28N 38°30' W 008°56'0 0.0
2017-Sep-18 03:58N 38°30' W 008°56'0 0.0
2017-Sep-18 03:28N 38°30' W 008°56'0 0.0
2017-Sep-18 02:58N 38°30' W 008°56'0 0.0
2017-Sep-18 02:28N 38°30' W 008°56'0 0.0
2017-Sep-18 01:55N 38°30' W 008°56'0 0.0
2017-Sep-18 01:28N 38°30' W 008°56'0 0.0
2017-Sep-18 00:58N 38°30' W 008°56'0 0.0
2017-Sep-18 00:25N 38°30' W 008°56'0 0.0
2017-Sep-17 23:58N 38°30' W 008°56'0 0.0
2017-Sep-17 23:25N 38°30' W 008°56'0 0.0
2017-Sep-17 22:58N 38°30' W 008°56'0 0.0
2017-Sep-17 22:28N 38°30' W 008°56'0 0.0
2017-Sep-17 21:58N 38°30' W 008°56'0 0.1
2017-Sep-17 21:30N 38°30' W 008°56'4 9.0
2017-Sep-17 21:00N 38°26' W 008°59'511.0
2017-Sep-17 20:31N 38°22' W 009°05'611.1
2017-Sep-17 20:00N 38°19' W 009°10'510.8
2017-Sep-17 19:30N 38°15' W 009°15'510.3
2017-Sep-17 19:00N 38°11' W 009°20'510.6
2017-Sep-17 18:30N 38°08' W 009°25'510.5
2017-Sep-17 18:01N 38°04' W 009°29'510.7
2017-Sep-17 17:30N 38°01' W 009°34'510.4
2017-Sep-17 17:01N 37°57' W 009°39'510.1
2017-Sep-17 16:30N 37°54' W 009°44'710.3
2017-Sep-17 15:49N 37°49' W 009°51'243 9.8
2017-Sep-16 15:01N 35°04' W 013°32'  
2017-Sep-12 02:07N 35°09' W 013°25'  
Track history (hours):
 
Tides and Currents Weather Stations Pressure Air Temp Water Temp Dewpoint Dewpoint Depression Visibility Wind Speed Wind Dir Waves Ship Positions

Roaz

Last reported at 2017-Sep-22 02:00 UTC. Time now 2017-Sep-22 22:43 UTC.
Position N 38°30' W 008°56'.

Length 82 m; draft 5.7 m.

Type: Cargo ship. MMSI: 255929000.

Date/timePositionNaut miles runAvg speedWind from/ knotsBaromVisibWave heightAir tempDewpointWater temp
2017-Sep-22 02:00N 38°30' W 008°56'5 8.9
2017-Sep-22 01:30N 38°26' W 008°60'510.2
2017-Sep-22 01:00N 38°24' W 009°05'510.3
2017-Sep-22 00:30N 38°23' W 009°12'510.6
2017-Sep-22 00:00N 38°24' W 009°18'611.0
2017-Sep-21 23:30N 38°28' W 009°24'611.3
2017-Sep-21 23:00N 38°31' W 009°29'611.2
2017-Sep-21 22:30N 38°35' W 009°35'611.2
2017-Sep-21 22:00N 38°38' W 009°41'510.5
2017-Sep-21 21:30N 38°43' W 009°43'611.5
2017-Sep-21 21:00N 38°49' W 009°44'611.4
2017-Sep-21 20:30N 38°54' W 009°44'611.7
2017-Sep-21 20:00N 39°00' W 009°44'611.9
2017-Sep-21 19:30N 39°06' W 009°44'611.7
2017-Sep-21 19:00N 39°12' W 009°43'611.5
2017-Sep-21 18:30N 39°18' W 009°43'611.6
2017-Sep-21 18:00N 39°24' W 009°43'  
2017-Sep-19 02:54N 39°39' W 009°33'4 9.3
2017-Sep-19 02:25N 39°35' W 009°37'4 9.1
2017-Sep-19 02:00N 39°32' W 009°40'4 8.9
2017-Sep-19 01:30N 39°29' W 009°43'5 9.3
2017-Sep-19 01:00N 39°24' W 009°43'5 9.5
2017-Sep-19 00:30N 39°19' W 009°43'5 9.9
2017-Sep-19 00:00N 39°14' W 009°43'5 9.8
2017-Sep-18 23:30N 39°09' W 009°43'5 9.7
2017-Sep-18 23:00N 39°04' W 009°43'5 9.9
2017-Sep-18 22:30N 38°60' W 009°42'5 9.8
2017-Sep-18 22:00N 38°55' W 009°43'5 9.5
2017-Sep-18 21:30N 38°50' W 009°42'5 9.4
2017-Sep-18 21:00N 38°45' W 009°41'5 9.4
2017-Sep-18 20:30N 38°41' W 009°41'4 8.9
2017-Sep-18 20:00N 38°37' W 009°37'5 9.7
2017-Sep-18 19:30N 38°34' W 009°32'5 9.3
2017-Sep-18 19:00N 38°31' W 009°28'5 9.6
2017-Sep-18 18:30N 38°28' W 009°23'5 9.1
2017-Sep-18 18:00N 38°25' W 009°18'5 9.0
2017-Sep-18 17:30N 38°22' W 009°14'5 9.2
2017-Sep-18 17:00N 38°23' W 009°08'5 9.6
2017-Sep-18 16:30N 38°24' W 009°02'510.0
2017-Sep-18 16:00N 38°28' W 008°58'2 4.0
2017-Sep-18 15:25N 38°30' W 008°56'0 0.0
2017-Sep-18 14:58N 38°30' W 008°56'0 0.0
2017-Sep-18 14:28N 38°30' W 008°56'0 0.0
2017-Sep-18 13:58N 38°30' W 008°56'0 0.0
2017-Sep-18 13:28N 38°30' W 008°56'0 0.0
2017-Sep-18 10:46N 38°30' W 008°56'0 0.0
2017-Sep-18 10:28N 38°30' W 008°56'0 0.0
2017-Sep-18 09:58N 38°30' W 008°56'0 0.0
2017-Sep-18 09:25N 38°30' W 008°56'0 0.0
2017-Sep-18 08:55N 38°30' W 008°56'0 0.0
2017-Sep-18 08:28N 38°30' W 008°56'0 0.0
2017-Sep-18 06:10N 38°30' W 008°56'0 0.0
2017-Sep-18 05:46N 38°30' W 008°56'0 0.0
2017-Sep-18 05:04N 38°30' W 008°56'0 0.0
2017-Sep-18 04:58N 38°30' W 008°56'0 0.0
2017-Sep-18 04:28N 38°30' W 008°56'0 0.0
2017-Sep-18 03:58N 38°30' W 008°56'0 0.0
2017-Sep-18 03:28N 38°30' W 008°56'0 0.0
2017-Sep-18 02:58N 38°30' W 008°56'0 0.0
2017-Sep-18 02:28N 38°30' W 008°56'0 0.0
2017-Sep-18 01:55N 38°30' W 008°56'0 0.0
2017-Sep-18 01:28N 38°30' W 008°56'0 0.0
2017-Sep-18 00:58N 38°30' W 008°56'0 0.0
2017-Sep-18 00:25N 38°30' W 008°56'0 0.0
2017-Sep-17 23:58N 38°30' W 008°56'0 0.0
2017-Sep-17 23:25N 38°30' W 008°56'0 0.0
2017-Sep-17 22:58N 38°30' W 008°56'0 0.0
2017-Sep-17 22:28N 38°30' W 008°56'0 0.0
2017-Sep-17 21:58N 38°30' W 008°56'0 0.1
2017-Sep-17 21:30N 38°30' W 008°56'4 9.0
2017-Sep-17 21:00N 38°26' W 008°59'511.0
2017-Sep-17 20:31N 38°22' W 009°05'611.1
2017-Sep-17 20:00N 38°19' W 009°10'510.8
2017-Sep-17 19:30N 38°15' W 009°15'510.3
2017-Sep-17 19:00N 38°11' W 009°20'510.6
2017-Sep-17 18:30N 38°08' W 009°25'510.5
2017-Sep-17 18:01N 38°04' W 009°29'510.7
2017-Sep-17 17:30N 38°01' W 009°34'510.4
2017-Sep-17 17:01N 37°57' W 009°39'510.1
2017-Sep-17 16:30N 37°54' W 009°44'710.3
2017-Sep-17 15:49N 37°49' W 009°51'243 9.8
2017-Sep-16 15:01N 35°04' W 013°32'  
2017-Sep-12 02:07N 35°09' W 013°25'  

Dump ship's entire track history